createdAt,value
2019-05-17T00:01:27.173Z,99.90
2019-05-17T00:03:56.625Z,99.90
2019-05-17T00:06:27.515Z,99.90
2019-05-17T00:08:57.110Z,99.90
2019-05-17T00:11:27.370Z,99.90
2019-05-17T00:13:57.083Z,99.90
2019-05-17T00:16:26.815Z,99.90
2019-05-17T00:18:56.848Z,99.90
2019-05-17T00:21:27.465Z,99.90
2019-05-17T00:23:57.324Z,99.90
2019-05-17T00:26:27.053Z,99.90
2019-05-17T00:28:56.502Z,99.90
2019-05-17T00:31:26.320Z,99.90
2019-05-17T00:33:56.673Z,99.90
2019-05-17T00:36:26.965Z,99.90
2019-05-17T00:38:56.832Z,99.90
2019-05-17T00:41:26.953Z,99.90
2019-05-17T00:43:57.034Z,99.90
2019-05-17T00:46:26.750Z,99.90
2019-05-17T00:48:57.317Z,99.90
2019-05-17T00:51:27.386Z,99.90
2019-05-17T00:53:56.813Z,99.90
2019-05-17T00:56:26.637Z,99.90
2019-05-17T00:58:56.803Z,99.90
2019-05-17T01:01:27.089Z,99.90
2019-05-17T01:03:57.156Z,99.90
2019-05-17T01:06:27.531Z,99.90
2019-05-17T01:09:01.925Z,99.90
2019-05-17T01:11:28.272Z,99.90
2019-05-17T01:13:58.655Z,99.90
2019-05-17T01:16:28.238Z,99.90
2019-05-17T01:18:57.554Z,99.90
2019-05-17T01:21:26.981Z,99.90
2019-05-17T01:23:56.389Z,99.90
2019-05-17T01:26:26.714Z,99.90
2019-05-17T01:28:57.322Z,99.90
2019-05-17T01:31:26.997Z,99.90
2019-05-17T01:33:56.608Z,99.90
2019-05-17T01:36:26.419Z,99.90
2019-05-17T01:38:57.620Z,99.90
2019-05-17T01:41:26.868Z,99.90
2019-05-17T01:43:56.922Z,99.90
2019-05-17T01:46:26.604Z,99.90
2019-05-17T01:48:57.752Z,99.90
2019-05-17T01:51:27.068Z,99.90
2019-05-17T01:53:57.372Z,99.90
2019-05-17T01:56:26.772Z,99.90
2019-05-17T01:58:57.530Z,99.90
2019-05-17T02:01:27.611Z,99.90
2019-05-17T02:03:57.532Z,99.90
2019-05-17T02:06:27.159Z,99.90
2019-05-17T02:08:56.943Z,99.90
2019-05-17T02:11:26.915Z,99.90
2019-05-17T02:13:56.461Z,99.90
2019-05-17T02:16:26.763Z,99.90
2019-05-17T02:18:57.299Z,99.90
2019-05-17T02:21:27.449Z,99.90
2019-05-17T02:23:57.198Z,99.90
2019-05-17T02:26:26.879Z,99.90
2019-05-17T02:28:56.263Z,99.90
2019-05-17T02:31:25.965Z,99.90
2019-05-17T02:33:55.691Z,99.90
2019-05-17T02:36:25.069Z,99.90
2019-05-17T02:38:54.537Z,99.90
2019-05-17T02:41:23.887Z,99.90
2019-05-17T02:43:53.537Z,99.90
2019-05-17T02:46:23.173Z,99.90
2019-05-17T02:48:53.847Z,99.90
2019-05-17T02:51:23.912Z,99.90
2019-05-17T02:53:53.322Z,99.90
2019-05-17T02:56:23.216Z,99.90
2019-05-17T02:58:53.449Z,99.90
2019-05-17T03:01:23.234Z,99.90
2019-05-17T03:03:53.088Z,99.90
2019-05-17T03:06:22.885Z,99.90
2019-05-17T03:08:52.678Z,99.90
2019-05-17T03:11:22.745Z,99.90
2019-05-17T03:13:52.698Z,99.90
2019-05-17T03:16:23.729Z,99.90
2019-05-17T03:18:53.302Z,99.90
2019-05-17T03:21:23.000Z,99.90
2019-05-17T03:23:54.016Z,99.90
2019-05-17T03:26:23.476Z,99.90
2019-05-17T03:28:53.803Z,99.90
2019-05-17T03:31:26.281Z,99.90
2019-05-17T03:33:56.183Z,99.90
2019-05-17T03:36:26.614Z,99.90
2019-05-17T03:38:56.198Z,99.90
2019-05-17T03:41:29.076Z,99.90
2019-05-17T03:43:56.562Z,99.90
2019-05-17T03:46:25.879Z,99.90
2019-05-17T03:48:55.150Z,99.90
2019-05-17T03:51:24.478Z,99.90
2019-05-17T03:53:53.805Z,99.90
2019-05-17T03:56:23.113Z,99.90
2019-05-17T03:58:53.087Z,99.90
2019-05-17T04:01:23.360Z,99.90
2019-05-17T04:03:53.143Z,99.90
2019-05-17T04:06:23.824Z,99.90
2019-05-17T04:08:53.469Z,99.90
2019-05-17T04:11:31.409Z,99.90
2019-05-17T04:13:54.175Z,99.90
2019-05-17T04:16:23.943Z,99.90
2019-05-17T04:18:53.654Z,99.90
2019-05-17T04:21:23.648Z,99.90
2019-05-17T04:23:53.774Z,99.90
2019-05-17T04:26:23.310Z,99.90
2019-05-17T04:28:53.433Z,99.90
2019-05-17T04:31:23.017Z,99.90
2019-05-17T04:33:53.646Z,99.90
2019-05-17T04:36:23.167Z,99.90
2019-05-17T04:38:52.746Z,99.90
2019-05-17T04:41:39.664Z,99.90
2019-05-17T04:43:53.399Z,99.90
2019-05-17T04:46:23.577Z,99.90
2019-05-17T04:48:53.717Z,99.90
2019-05-17T04:51:23.404Z,99.90
2019-05-17T04:53:53.070Z,99.90
2019-05-17T04:56:22.893Z,99.90
2019-05-17T04:58:54.290Z,99.90
2019-05-17T05:01:23.747Z,99.90
2019-05-17T05:03:53.254Z,99.90
2019-05-17T05:06:23.334Z,99.90
2019-05-17T05:08:53.035Z,99.90
2019-05-17T05:11:23.339Z,99.90
2019-05-17T05:13:53.413Z,99.90
2019-05-17T05:16:22.807Z,99.90
2019-05-17T05:18:52.261Z,99.90
2019-05-17T05:21:23.075Z,99.90
2019-05-17T05:23:52.651Z,99.90
2019-05-17T05:26:22.297Z,99.90
2019-05-17T05:28:52.904Z,99.90
2019-05-17T05:31:22.764Z,99.90
2019-05-17T05:33:52.298Z,99.90
2019-05-17T05:36:22.078Z,99.90
2019-05-17T05:38:51.636Z,99.90
2019-05-17T05:41:22.574Z,99.90
2019-05-17T05:43:52.658Z,99.90
2019-05-17T05:46:22.485Z,99.90
2019-05-17T05:48:52.223Z,99.90
2019-05-17T05:51:21.765Z,99.90
2019-05-17T05:53:52.169Z,99.90
2019-05-17T05:56:22.037Z,99.90
2019-05-17T05:58:52.255Z,99.90
2019-05-17T06:01:22.045Z,99.90
2019-05-17T06:03:52.021Z,99.90
2019-05-17T06:06:21.637Z,99.90
2019-05-17T06:08:52.124Z,99.90
2019-05-17T06:11:21.824Z,99.90
2019-05-17T06:13:52.397Z,99.90
2019-05-17T06:16:22.719Z,99.90
2019-05-17T06:18:52.280Z,99.90
2019-05-17T06:21:22.636Z,99.90
2019-05-17T06:23:52.148Z,99.90
2019-05-17T06:26:23.764Z,99.90
2019-05-17T06:28:52.493Z,99.90
2019-05-17T06:31:23.936Z,99.90
2019-05-17T06:33:52.729Z,99.90
2019-05-17T06:36:21.986Z,99.90
2019-05-17T06:38:52.717Z,99.90
2019-05-17T06:41:22.191Z,99.90
2019-05-17T06:43:52.349Z,99.90
2019-05-17T06:46:22.052Z,99.90
2019-05-17T06:48:52.986Z,99.90
2019-05-17T06:51:22.620Z,99.90
2019-05-17T06:53:52.359Z,99.90
2019-05-17T06:56:22.933Z,99.90
2019-05-17T06:58:52.364Z,99.90
2019-05-17T07:01:21.853Z,99.90
2019-05-17T07:03:51.219Z,99.90
2019-05-17T07:06:22.240Z,99.90
2019-05-17T07:08:51.489Z,99.90
2019-05-17T07:11:21.133Z,99.90
2019-05-17T07:13:50.556Z,99.90
2019-05-17T07:16:19.836Z,99.90
2019-05-17T07:18:49.463Z,99.90
2019-05-17T07:21:20.556Z,99.90
2019-05-17T07:23:50.030Z,99.90
2019-05-17T07:26:19.801Z,99.90
2019-05-17T07:28:49.850Z,99.90
2019-05-17T07:31:21.332Z,99.90
2019-05-17T07:33:50.842Z,99.90
2019-05-17T07:36:20.634Z,99.90
2019-05-17T07:38:50.492Z,99.90
2019-05-17T07:41:20.389Z,99.90
2019-05-17T07:43:49.936Z,99.90
2019-05-17T07:46:20.620Z,99.90
2019-05-17T07:48:50.031Z,99.90
2019-05-17T07:51:19.571Z,99.90
2019-05-17T07:53:49.612Z,99.90
2019-05-17T07:56:19.948Z,99.90
2019-05-17T07:58:49.664Z,99.90
2019-05-17T08:01:20.440Z,99.90
2019-05-17T08:03:50.246Z,99.90
2019-05-17T08:06:20.011Z,99.90
2019-05-17T08:08:50.127Z,99.90
2019-05-17T08:11:19.807Z,99.90
2019-05-17T08:13:50.450Z,99.90
2019-05-17T08:16:19.944Z,99.90
2019-05-17T08:18:49.745Z,99.90
2019-05-17T08:21:19.881Z,99.90
2019-05-17T08:23:50.564Z,99.90
2019-05-17T08:26:20.137Z,99.90
2019-05-17T08:28:49.917Z,99.90
2019-05-17T08:31:20.146Z,99.90
2019-05-17T08:33:49.862Z,99.90
2019-05-17T08:36:20.120Z,99.90
2019-05-17T08:38:50.193Z,99.90
2019-05-17T08:41:20.824Z,99.90
2019-05-17T08:43:51.394Z,99.90
2019-05-17T08:46:21.131Z,99.90
2019-05-17T08:48:50.452Z,99.90
2019-05-17T08:51:19.869Z,99.90
2019-05-17T08:53:49.336Z,99.90
2019-05-17T08:56:20.519Z,99.90
2019-05-17T08:58:49.880Z,99.90
2019-05-17T09:01:19.725Z,99.90
2019-05-17T09:03:50.560Z,99.90
2019-05-17T09:06:20.037Z,99.90
2019-05-17T09:08:49.993Z,99.90
2019-05-17T09:11:19.736Z,99.90
2019-05-17T09:13:58.078Z,99.90
2019-05-17T09:16:20.144Z,99.90
2019-05-17T09:18:50.189Z,99.90
2019-05-17T09:21:21.879Z,99.90
2019-05-17T09:23:50.698Z,99.90
2019-05-17T09:26:20.156Z,99.90
2019-05-17T09:28:49.934Z,99.90
2019-05-17T09:31:20.416Z,99.90
2019-05-17T09:33:49.992Z,99.90
2019-05-17T09:36:20.441Z,99.90
2019-05-17T09:38:49.936Z,99.90
2019-05-17T09:41:20.077Z,99.90
2019-05-17T09:43:50.004Z,99.90
2019-05-17T09:46:19.731Z,99.90
2019-05-17T09:48:50.440Z,99.90
2019-05-17T09:51:20.057Z,99.90
2019-05-17T09:53:49.777Z,99.90
2019-05-17T09:56:20.606Z,99.90
2019-05-17T09:58:50.208Z,99.90
2019-05-17T10:01:19.713Z,99.90
2019-05-17T10:03:50.654Z,99.90
2019-05-17T10:06:20.326Z,99.90
2019-05-17T10:08:49.711Z,99.90
2019-05-17T10:11:20.335Z,99.90
2019-05-17T10:13:50.043Z,99.90
2019-05-17T10:16:20.331Z,99.90
2019-05-17T10:18:49.929Z,99.90
2019-05-17T10:21:19.875Z,99.90
2019-05-17T10:23:49.810Z,99.90
2019-05-17T10:26:19.725Z,99.90
2019-05-17T10:28:51.407Z,99.90
2019-05-17T10:31:20.337Z,99.90
2019-05-17T10:33:49.612Z,99.90
2019-05-17T10:36:20.215Z,99.90
2019-05-17T10:38:50.206Z,99.90
2019-05-17T10:41:20.022Z,99.90
2019-05-17T10:43:50.113Z,99.90
2019-05-17T10:46:20.645Z,99.90
2019-05-17T10:48:50.228Z,99.90
2019-05-17T10:51:20.227Z,99.90
2019-05-17T10:53:51.283Z,99.90
2019-05-17T10:56:23.569Z,99.90
2019-05-17T10:58:52.162Z,99.90
2019-05-17T11:01:21.523Z,99.90
2019-05-17T11:03:51.045Z,99.90
2019-05-17T11:06:20.541Z,99.90
2019-05-17T11:08:50.220Z,99.90
2019-05-17T11:11:20.218Z,99.90
2019-05-17T11:13:52.910Z,99.90
2019-05-17T11:16:21.515Z,99.90
2019-05-17T11:18:51.173Z,99.90
2019-05-17T11:21:20.642Z,99.90
2019-05-17T11:23:50.342Z,99.90
2019-05-17T11:26:19.897Z,99.90
2019-05-17T11:28:49.650Z,99.90
2019-05-17T11:31:19.227Z,99.90
2019-05-17T11:33:48.776Z,99.90
2019-05-17T11:36:18.491Z,99.90
2019-05-17T11:38:47.991Z,99.90
2019-05-17T11:41:21.632Z,99.90
2019-05-17T11:43:50.683Z,99.90
2019-05-17T11:46:33.955Z,99.90
2019-05-17T11:48:51.260Z,99.90
2019-05-17T11:51:20.620Z,99.90
2019-05-17T11:53:49.996Z,99.90
2019-05-17T11:56:19.273Z,99.90
2019-05-17T11:58:48.667Z,99.90
2019-05-17T12:01:17.944Z,99.90
2019-05-17T12:03:47.297Z,99.90
2019-05-17T12:06:16.586Z,99.90
2019-05-17T12:08:45.948Z,99.90
2019-05-17T12:11:15.229Z,99.90
2019-05-17T12:13:44.550Z,99.90
2019-05-17T12:16:13.924Z,99.90
2019-05-17T12:18:43.334Z,99.90
2019-05-17T12:21:12.600Z,99.90
2019-05-17T12:23:41.865Z,99.90
2019-05-17T12:26:11.132Z,99.90
2019-05-17T12:28:40.477Z,99.20
2019-05-17T12:31:09.831Z,99.80
2019-05-17T12:33:39.141Z,97.60
2019-05-17T12:36:08.525Z,98.80
2019-05-17T12:38:37.907Z,98.60
2019-05-17T12:41:07.395Z,98.00
2019-05-17T12:43:36.876Z,99.90
2019-05-17T12:46:06.544Z,99.90
2019-05-17T12:48:36.201Z,99.90
2019-05-17T12:51:05.540Z,99.90
2019-05-17T12:53:34.985Z,99.90
2019-05-17T12:56:04.424Z,99.90
2019-05-17T12:58:33.789Z,99.90
2019-05-17T13:01:03.416Z,97.50
2019-05-17T13:03:32.736Z,96.90
2019-05-17T13:06:02.078Z,97.00
2019-05-17T13:08:31.447Z,96.20
2019-05-17T13:11:00.732Z,97.00
2019-05-17T13:13:30.113Z,96.60
2019-05-17T13:15:59.450Z,96.30
2019-05-17T13:18:28.854Z,97.30
2019-05-17T13:20:58.194Z,97.40
2019-05-17T13:23:27.555Z,96.20
2019-05-17T13:25:56.890Z,96.10
2019-05-17T13:28:26.211Z,97.40
2019-05-17T13:30:55.698Z,97.00
2019-05-17T13:33:28.543Z,96.10
2019-05-17T13:35:56.162Z,95.60
2019-05-17T13:38:25.534Z,94.40
2019-05-17T13:40:54.885Z,94.00
2019-05-17T13:43:24.269Z,94.90
2019-05-17T13:45:53.657Z,94.10
2019-05-17T13:48:23.046Z,94.40
2019-05-17T13:50:54.513Z,95.50
2019-05-17T13:53:23.907Z,95.60
2019-05-17T13:55:53.220Z,94.80
2019-05-17T13:58:22.572Z,95.80
2019-05-17T14:00:51.945Z,94.70
2019-05-17T14:03:21.327Z,95.30
2019-05-17T14:05:50.730Z,94.80
2019-05-17T14:08:20.050Z,95.00
2019-05-17T14:10:49.443Z,94.90
2019-05-17T14:13:18.741Z,94.30
2019-05-17T14:15:48.114Z,92.90
2019-05-17T14:18:17.478Z,91.20
2019-05-17T14:20:46.864Z,91.00
2019-05-17T14:23:16.257Z,90.40
2019-05-17T14:25:45.604Z,89.60
2019-05-17T14:28:14.940Z,90.10
2019-05-17T14:30:44.363Z,87.90
2019-05-17T14:33:13.782Z,90.50
2019-05-17T14:35:43.121Z,90.60
2019-05-17T14:38:12.433Z,89.80
2019-05-17T14:43:12.776Z,87.70
2019-05-17T14:45:42.186Z,86.20
2019-05-17T14:48:11.525Z,89.70
2019-05-17T14:50:40.990Z,89.40
2019-05-17T14:53:10.409Z,90.40
2019-05-17T14:55:39.736Z,88.50
2019-05-17T14:58:09.016Z,90.00
2019-05-17T15:00:38.492Z,90.20
2019-05-17T15:03:07.849Z,90.40
2019-05-17T15:05:37.178Z,89.30
2019-05-17T15:08:06.542Z,85.00
2019-05-17T15:10:35.908Z,85.50
2019-05-17T15:13:05.262Z,85.80
2019-05-17T15:15:34.620Z,85.10
2019-05-17T15:18:03.967Z,84.20
2019-05-17T15:20:33.228Z,85.40
2019-05-17T15:23:02.712Z,87.00
2019-05-17T15:25:32.143Z,84.00
2019-05-17T15:28:01.478Z,80.70
2019-05-17T15:30:30.800Z,78.80
2019-05-17T15:33:00.184Z,79.30
2019-05-17T15:35:29.525Z,79.20
2019-05-17T15:37:58.914Z,75.10
2019-05-17T15:40:28.266Z,78.40
2019-05-17T15:42:57.652Z,80.70
2019-05-17T15:45:27.020Z,80.00
2019-05-17T15:47:56.576Z,84.80
2019-05-17T15:50:25.906Z,85.70
2019-05-17T15:52:55.296Z,86.20
2019-05-17T15:55:24.657Z,83.40
2019-05-17T15:57:54.020Z,84.20
2019-05-17T16:00:23.434Z,84.40
2019-05-17T16:02:52.722Z,83.50
2019-05-17T16:05:22.053Z,81.90
2019-05-17T16:07:51.382Z,83.60
2019-05-17T16:10:20.809Z,82.70
2019-05-17T16:13:01.669Z,82.90
2019-05-17T16:15:21.260Z,82.40
2019-05-17T16:17:50.623Z,83.20
2019-05-17T16:20:20.033Z,83.70
2019-05-17T16:22:49.420Z,81.70
2019-05-17T16:25:18.736Z,82.60
2019-05-17T16:27:48.167Z,83.50
2019-05-17T16:30:17.624Z,81.50
2019-05-17T16:32:47.004Z,82.20
2019-05-17T16:35:16.396Z,80.50
2019-05-17T16:37:45.720Z,81.10
2019-05-17T16:40:15.379Z,80.00
2019-05-17T16:42:44.763Z,80.30
2019-05-17T16:45:15.521Z,81.40
2019-05-17T16:47:44.994Z,81.20
2019-05-17T16:50:14.708Z,81.80
2019-05-17T16:52:43.993Z,81.40
2019-05-17T16:55:14.181Z,80.50
2019-05-17T16:57:43.559Z,81.30
2019-05-17T17:00:30.654Z,80.50
2019-05-17T17:03:00.009Z,81.90
2019-05-17T17:05:29.376Z,82.70
2019-05-17T17:07:58.867Z,83.60
2019-05-17T17:10:28.153Z,84.20
2019-05-17T17:12:57.521Z,84.40
2019-05-17T17:15:26.925Z,85.20
2019-05-17T17:17:56.296Z,86.70
2019-05-17T17:20:25.721Z,86.40
2019-05-17T17:22:55.097Z,87.80
2019-05-17T17:25:24.561Z,86.70
2019-05-17T17:27:53.920Z,90.00
2019-05-17T17:30:24.016Z,88.00
2019-05-17T17:32:53.316Z,88.80
2019-05-17T17:35:22.609Z,89.30
2019-05-17T17:37:51.978Z,85.10
2019-05-17T17:40:22.716Z,85.40
2019-05-17T17:42:52.036Z,86.40
2019-05-17T17:45:23.179Z,88.20
2019-05-17T17:47:52.580Z,89.00
2019-05-17T17:50:21.915Z,88.20
2019-05-17T17:52:52.418Z,89.10
2019-05-17T17:55:21.852Z,88.90
2019-05-17T17:57:51.260Z,89.90
2019-05-17T18:00:21.134Z,89.60
2019-05-17T18:02:50.606Z,90.30
2019-05-17T18:05:20.039Z,90.60
2019-05-17T18:07:49.449Z,89.20
2019-05-17T18:10:31.634Z,90.10
2019-05-17T18:13:01.244Z,90.30
2019-05-17T18:15:38.626Z,90.60
2019-05-17T18:18:07.952Z,90.90
2019-05-17T18:20:37.604Z,90.60
2019-05-17T18:23:07.072Z,91.20
2019-05-17T18:25:36.364Z,90.70
2019-05-17T18:28:06.490Z,91.00
2019-05-17T18:30:35.946Z,91.50
2019-05-17T18:33:05.794Z,92.40
2019-05-17T18:35:36.048Z,91.90
2019-05-17T18:38:06.081Z,92.00
2019-05-17T18:40:35.372Z,92.30
2019-05-17T18:43:04.713Z,91.80
2019-05-17T18:45:34.043Z,92.00
2019-05-17T18:48:03.398Z,92.10
2019-05-17T18:50:32.672Z,93.10
2019-05-17T18:53:02.441Z,92.20
2019-05-17T18:55:32.864Z,92.40
2019-05-17T18:58:02.144Z,92.40
2019-05-17T19:00:31.477Z,93.00
2019-05-17T19:03:00.821Z,93.50
2019-05-17T19:05:30.161Z,93.50
2019-05-17T19:08:02.505Z,94.90
2019-05-17T19:10:31.693Z,94.60
2019-05-17T19:13:01.017Z,94.80
2019-05-17T19:15:30.278Z,94.50
2019-05-17T19:17:59.577Z,94.90
2019-05-17T19:20:28.903Z,95.30
2019-05-17T19:22:58.805Z,95.80
2019-05-17T19:25:28.139Z,96.60
2019-05-17T19:27:57.536Z,96.00
2019-05-17T19:30:27.276Z,96.60
2019-05-17T19:32:56.590Z,96.60
2019-05-17T19:35:25.905Z,97.00
2019-05-17T19:37:55.290Z,97.40
2019-05-17T19:40:24.524Z,97.50
2019-05-17T19:42:53.856Z,97.80
2019-05-17T19:45:23.724Z,98.00
2019-05-17T19:47:53.072Z,98.30
2019-05-17T19:50:22.300Z,98.40
2019-05-17T19:52:51.605Z,98.40
2019-05-17T19:55:20.863Z,98.20
2019-05-17T19:57:50.196Z,98.30
2019-05-17T20:00:20.145Z,98.20
2019-05-17T20:02:49.673Z,98.30
2019-05-17T20:05:19.936Z,98.40
2019-05-17T20:07:49.260Z,98.50
2019-05-17T20:10:18.711Z,98.40
2019-05-17T20:12:48.116Z,98.60
2019-05-17T20:15:19.720Z,98.70
2019-05-17T20:17:49.167Z,99.30
2019-05-17T20:20:18.574Z,99.10
2019-05-17T20:22:47.952Z,99.50
2019-05-17T20:25:17.333Z,99.40
2019-05-17T20:27:46.616Z,99.40
2019-05-17T20:30:16.575Z,99.70
2019-05-17T20:32:45.940Z,99.50
2019-05-17T20:35:18.013Z,99.90
2019-05-17T20:37:47.536Z,99.90
2019-05-17T20:40:17.340Z,99.90
2019-05-17T20:42:46.636Z,99.90
2019-05-17T20:45:15.998Z,99.90
2019-05-17T20:47:45.376Z,99.90
2019-05-17T20:50:15.918Z,99.90
2019-05-17T20:52:45.180Z,99.90
2019-05-17T20:55:14.728Z,99.90
2019-05-17T20:57:44.100Z,99.90
2019-05-17T21:00:14.305Z,99.90
2019-05-17T21:02:43.668Z,99.90
2019-05-17T21:05:16.613Z,99.90
2019-05-17T21:07:46.189Z,99.90
2019-05-17T21:10:15.720Z,99.90
2019-05-17T21:12:45.017Z,99.90
2019-05-17T21:15:14.264Z,99.90
2019-05-17T21:17:43.561Z,99.90
2019-05-17T21:20:15.810Z,99.90
2019-05-17T21:22:45.116Z,99.90
2019-05-17T21:25:14.451Z,99.90
2019-05-17T21:27:43.707Z,99.90
2019-05-17T21:30:13.804Z,99.90
2019-05-17T21:32:43.127Z,99.90
2019-05-17T21:35:12.343Z,99.90
2019-05-17T21:37:41.589Z,99.90
2019-05-17T21:40:11.144Z,99.90
2019-05-17T21:42:40.497Z,99.90
2019-05-17T21:45:10.037Z,99.90
2019-05-17T21:47:39.284Z,99.90
2019-05-17T21:50:08.555Z,99.90
2019-05-17T21:52:37.792Z,99.90
2019-05-17T21:55:07.207Z,99.90
2019-05-17T21:57:36.436Z,99.90
2019-05-17T22:00:09.265Z,99.90
2019-05-17T22:02:38.586Z,99.90
2019-05-17T22:05:08.062Z,99.90
2019-05-17T22:07:37.292Z,99.90
2019-05-17T22:10:06.812Z,99.90
2019-05-17T22:12:36.157Z,99.90
2019-05-17T22:15:05.783Z,99.90
2019-05-17T22:17:35.152Z,99.90
2019-05-17T22:20:04.453Z,99.90
2019-05-17T22:22:33.774Z,99.90
2019-05-17T22:25:03.112Z,99.90
2019-05-17T22:27:32.368Z,99.90
2019-05-17T22:30:01.739Z,99.90
2019-05-17T22:32:31.017Z,99.90
2019-05-17T22:35:00.334Z,99.90
2019-05-17T22:37:29.640Z,99.90
2019-05-17T22:39:59.008Z,99.90
2019-05-17T22:42:28.369Z,99.90
2019-05-17T22:44:57.750Z,99.90
2019-05-17T22:47:26.950Z,99.90
2019-05-17T22:49:56.320Z,99.90
2019-05-17T22:52:25.577Z,99.90
2019-05-17T22:54:54.825Z,99.90
2019-05-17T22:57:24.100Z,99.90
2019-05-17T22:59:53.340Z,99.90
2019-05-17T23:02:22.660Z,99.90
2019-05-17T23:04:52.017Z,99.90
2019-05-17T23:07:21.292Z,99.90
2019-05-17T23:09:50.568Z,99.90
2019-05-17T23:12:19.901Z,99.90
2019-05-17T23:14:49.731Z,99.90
2019-05-17T23:17:19.409Z,99.90
2019-05-17T23:19:48.958Z,99.90
2019-05-17T23:22:18.544Z,99.90
2019-05-17T23:24:48.071Z,99.90
2019-05-17T23:27:18.497Z,99.90
2019-05-17T23:29:48.229Z,99.90
2019-05-17T23:32:18.568Z,99.90
2019-05-17T23:34:48.241Z,99.90
2019-05-17T23:37:17.675Z,99.90
2019-05-17T23:39:47.360Z,99.90
2019-05-17T23:42:16.900Z,99.90
2019-05-17T23:44:46.467Z,99.90
2019-05-17T23:47:16.200Z,99.90
2019-05-17T23:49:45.676Z,99.90
2019-05-17T23:52:15.781Z,99.90
2019-05-17T23:54:45.380Z,99.90
2019-05-17T23:57:14.819Z,99.90
2019-05-17T23:59:44.546Z,99.90
